Radford, Virginia
Current Conditions -  °F | °C
As of 2:55 AM on Tuesday 27 Jan 2015 (Local Time) from KPSK Reporting Station
Broken Clouds Broken Clouds  
Wind Chill: 13°   Ceiling: 2600
Heat Index: 25°   Visibility: 10mi
Dew Point: 17°   Wind: 13mph
Humidity: 72%   Direction: 310°NW
Pressure: 29.77"   Gusts: NA
Location:  37.12°N, 80.59°W
Report Text: KPSK 270755Z AUTO 31011KT 10SM BKN026 M04/M08 A2977 RMK AO2 T10401084
Loading
Personal Weather Stations






























Interactive Weather Map New forecast layout! Learn more

10-Day Weather Forecast

Advertisements
Track Severe Weather on mobile